Terminal Aerodrome Forecast
Issued by NWS

Home | Current Version | Previous Version | Text Only | Print | Product List | Glossary On
Versions: 1 2 3 4 5 6 7 8 9 10 11 12 13 14 15
000
FTUS43 KEAX 202300
TAFSTJ
TAF
KSTJ 202333Z 2100/2124 03003KT P6SM SKC
     FM210800 00000KT 6SM BR SKC
      TEMPO 2108/2110 3SM BR
     FM211000 VRB01KT 2SM BR SKC
      TEMPO 2110/2113 1/4SM FG
     FM211300 13003KT P6SM SKC=

USA.gov is the U.S. government's official web portal to all federal, state and local government web resources and services.